Time;durP1;ratioP1;P1;durP2;ratioP2;P2;SDS_P1;SDS_P2;PMS_P1;PMS_P2;Temp;Humidity;BMP_temperature;BMP_pressure;BME280_temperature;BME280_humidity;BME280_pressure;Samples;Min_cycle;Max_cycle;Signal;HPM_P1;HPM_P2
2021/04/23 00:00:14;;;;;;;13.54;5.22;;;;;;;1.51;79.83;96446.97;1027554;28;20066;-69
2021/04/23 00:00:46;;;;;;;11.73;5.10;;;;;;;1.48;80.06;96449.91;1025953;28;20026;-70
2021/04/23 00:01:19;;;;;;;15.92;4.88;;;;;;;1.46;80.42;96449.28;1023154;29;20031;-70
2021/04/23 00:01:49;;;;;;;14.42;5.30;;;;;;;1.43;80.54;96454.84;1018682;29;20051;-69
2021/04/23 00:02:20;;;;;;;14.70;5.30;;;;;;;1.41;81.13;96457.63;1019430;29;20575;-69
2021/04/23 00:02:53;;;;;;;14.77;5.50;;;;;;;1.39;81.54;96449.25;1019518;28;20031;-70
2021/04/23 00:03:25;;;;;;;12.26;5.14;;;;;;;1.42;81.43;96453.25;1019751;28;20053;-69
2021/04/23 00:04:01;;;;;;;10.62;5.12;;;;;;;1.45;80.96;96447.69;1030403;28;20026;-70
2021/04/23 00:04:31;;;;;;;11.74;4.94;;;;;;;1.42;80.85;96448.06;1020276;28;20032;-70
2021/04/23 00:05:02;;;;;;;12.52;5.18;;;;;;;1.38;81.55;96436.50;1019850;29;20124;-70
2021/04/23 00:05:32;;;;;;;12.20;5.40;;;;;;;1.46;81.51;96445.91;1018771;28;20401;-69
2021/04/23 00:06:15;;;;;;;12.73;5.65;;;;;;;1.35;82.01;96437.69;1021356;28;20035;-70
2021/04/23 00:06:48;;;;;;;11.77;5.13;;;;;;;1.34;82.17;96440.44;1028687;28;20022;-69
2021/04/23 00:07:19;;;;;;;11.88;5.74;;;;;;;1.37;82.51;96451.19;1029095;28;20054;-69
2021/04/23 00:07:49;;;;;;;12.15;5.03;;;;;;;1.34;82.90;96445.59;1018758;29;20067;-70
2021/04/23 00:08:20;;;;;;;12.43;5.43;;;;;;;1.31;83.28;96440.84;1022588;28;20023;-70
2021/04/23 00:09:18;;;;;;;10.40;5.07;;;;;;;1.31;83.63;96449.38;1023142;28;20038;-70
2021/04/23 00:09:48;;;;;;;14.45;5.72;;;;;;;1.28;83.53;96446.38;1031601;28;20141;-70
2021/04/23 00:10:20;;;;;;;8.03;5.17;;;;;;;1.28;84.01;96442.00;1030994;28;20106;-70
2021/04/23 00:10:51;;;;;;;14.25;5.05;;;;;;;1.29;84.25;96446.19;1026917;28;20044;-70
2021/04/23 00:11:24;;;;;;;15.35;5.30;;;;;;;1.31;84.66;96446.81;1026813;28;20252;-70
2021/04/23 00:12:05;;;;;;;18.06;5.88;;;;;;;1.25;85.24;96446.75;1019505;28;20840;-70
2021/04/23 00:12:36;;;;;;;14.07;5.60;;;;;;;1.13;85.19;96436.09;1020567;29;20047;-70
2021/04/23 00:13:06;;;;;;;9.73;5.67;;;;;;;1.26;85.19;96448.34;1028669;28;20117;-69
2021/04/23 00:13:37;;;;;;;10.23;5.10;;;;;;;1.10;85.12;96428.72;1032837;28;20035;-69
2021/04/23 00:14:08;;;;;;;11.32;5.60;;;;;;;1.17;84.77;96445.91;1026887;28;20019;-69
2021/04/23 00:14:47;;;;;;;12.50;5.28;;;;;;;1.18;85.00;96444.91;1018641;29;20291;-69
2021/04/23 00:15:20;;;;;;;12.80;5.03;;;;;;;1.18;85.60;96439.72;1018297;29;20024;-70
2021/04/23 00:15:50;;;;;;;9.93;4.68;;;;;;;1.17;85.61;96445.91;1025999;28;20422;-70
2021/04/23 00:16:21;;;;;;;12.33;5.83;;;;;;;1.17;85.52;96447.66;1033825;28;20014;-70
2021/04/23 00:16:51;;;;;;;11.82;5.53;;;;;;;1.11;84.90;96431.13;1030388;28;20018;-70
2021/04/23 00:17:22;;;;;;;13.30;5.33;;;;;;;1.10;85.69;96426.91;1026416;28;20038;-70
2021/04/23 00:17:52;;;;;;;11.70;5.70;;;;;;;1.21;85.95;96445.50;1022753;28;20047;-69
2021/04/23 00:18:23;;;;;;;10.80;5.60;;;;;;;1.21;85.85;96440.31;1026670;28;20030;-70
2021/04/23 00:18:53;;;;;;;13.02;4.93;;;;;;;1.26;85.77;96443.16;1023005;29;20369;-70
2021/04/23 00:19:25;;;;;;;12.93;5.33;;;;;;;1.28;85.44;96438.63;1023433;28;20120;-68
2021/04/23 00:19:56;;;;;;;10.10;5.68;;;;;;;1.25;85.61;96444.16;1030483;28;20026;-69
2021/04/23 00:20:27;;;;;;;14.97;5.90;;;;;;;1.24;85.40;96438.19;1031848;28;20412;-69
2021/04/23 00:20:58;;;;;;;14.62;5.52;;;;;;;1.24;85.58;96443.38;1030877;28;20113;-70
2021/04/23 00:21:28;;;;;;;12.57;5.37;;;;;;;1.17;85.87;96440.72;1026243;28;20039;-69
2021/04/23 00:21:59;;;;;;;10.43;5.50;;;;;;;1.17;86.24;96435.56;1030573;28;20050;-69
2021/04/23 00:22:29;;;;;;;21.80;6.03;;;;;;;1.15;86.25;96436.72;1023106;28;20469;-69
2021/04/23 00:23:02;;;;;;;14.27;5.20;;;;;;;1.11;86.46;96444.03;1026961;28;20027;-69
2021/04/23 00:23:33;;;;;;;11.73;5.63;;;;;;;1.09;86.92;96440.84;1027132;28;20034;-69
2021/04/23 00:24:03;;;;;;;11.73;5.55;;;;;;;1.14;86.84;96435.91;1027404;28;20035;-70
2021/04/23 00:24:34;;;;;;;13.48;6.10;;;;;;;1.16;87.04;96443.47;1026890;28;20451;-70
2021/04/23 00:25:05;;;;;;;11.57;5.13;;;;;;;1.20;87.16;96434.34;1026137;28;20377;-69
2021/04/23 00:25:36;;;;;;;12.93;6.43;;;;;;;1.20;86.39;96433.56;1026629;28;20037;-70
2021/04/23 00:26:07;;;;;;;15.30;6.33;;;;;;;1.18;86.64;96437.16;1023024;28;20266;-70
2021/04/23 00:26:40;;;;;;;12.58;5.22;;;;;;;1.14;87.10;96428.16;1022817;28;20030;-69
2021/04/23 00:27:10;;;;;;;12.68;5.40;;;;;;;1.18;86.52;96431.19;1026893;28;20134;-70
2021/04/23 00:27:41;;;;;;;10.77;5.67;;;;;;;1.17;86.69;96442.47;1027363;28;20428;-69
2021/04/23 00:28:13;;;;;;;9.50;5.03;;;;;;;1.15;86.88;96436.72;1027101;28;20416;-69
2021/04/23 00:28:43;;;;;;;12.52;5.90;;;;;;;1.15;86.99;96437.50;1031500;28;20022;-70
2021/04/23 00:29:14;;;;;;;10.85;5.20;;;;;;;1.13;87.08;96436.88;1022915;29;20122;-70
2021/04/23 00:29:44;;;;;;;13.40;5.00;;;;;;;1.13;87.46;96434.31;1023562;28;20031;-71
2021/04/23 00:30:15;;;;;;;10.45;5.50;;;;;;;1.13;87.84;96439.47;1027125;28;20019;-70
2021/04/23 00:30:49;;;;;;;10.07;5.53;;;;;;;1.12;88.29;96437.88;1031553;28;20025;-69
2021/04/23 00:31:19;;;;;;;12.57;5.38;;;;;;;1.12;88.17;96432.72;1034896;28;20026;-69
2021/04/23 00:32:52;;;;;;;12.07;5.35;;;;;;;1.08;88.85;96447.00;1032134;28;20027;-70
2021/04/23 00:33:24;;;;;;;13.73;5.32;;;;;;;1.07;89.03;96439.41;1038475;28;20462;-70
2021/04/23 00:33:54;;;;;;;15.34;5.30;;;;;;;1.08;89.13;96441.81;1035285;28;20530;-69
2021/04/23 00:34:25;;;;;;;10.43;5.13;;;;;;;1.05;89.09;96438.81;1039022;28;20029;-70
2021/04/23 00:34:55;;;;;;;11.97;6.00;;;;;;;1.05;89.29;96431.84;1035827;28;20121;-70
2021/04/23 00:35:28;;;;;;;11.83;5.93;;;;;;;1.01;89.22;96438.38;1026411;28;20019;-70
2021/04/23 00:35:58;;;;;;;10.12;5.18;;;;;;;1.01;89.39;96440.97;1027226;28;20033;-71
2021/04/23 00:36:29;;;;;;;14.23;5.37;;;;;;;0.95;89.67;96431.38;1030670;28;20026;-70
2021/04/23 00:36:59;;;;;;;14.90;5.30;;;;;;;1.02;90.15;96437.41;1027344;28;20101;-69
2021/04/23 00:37:30;;;;;;;14.00;5.70;;;;;;;1.03;89.96;96431.22;1030786;28;20030;-69
2021/04/23 00:38:01;;;;;;;12.07;5.53;;;;;;;1.02;90.40;96434.00;1026947;28;20423;-70
2021/04/23 00:38:32;;;;;;;16.65;6.10;;;;;;;0.92;90.46;96421.41;1026954;28;20399;-69
2021/04/23 00:39:03;;;;;;;12.67;5.30;;;;;;;0.99;90.64;96448.09;1027041;28;20022;-70
2021/04/23 00:39:35;;;;;;;13.07;5.50;;;;;;;0.99;90.60;96442.13;1031747;28;20030;-69
2021/04/23 00:40:06;;;;;;;11.18;6.15;;;;;;;0.95;91.09;96444.28;1036329;28;20029;-69
2021/04/23 00:40:41;;;;;;;14.53;5.90;;;;;;;0.89;91.24;96434.69;1038179;28;20031;-69
2021/04/23 00:41:14;;;;;;;12.05;5.00;;;;;;;0.98;91.36;96443.91;1027770;28;20416;-70
2021/04/23 00:41:44;;;;;;;11.10;6.43;;;;;;;0.95;91.67;96441.69;1030464;28;20040;-70
2021/04/23 00:42:15;;;;;;;13.70;5.83;;;;;;;0.97;91.20;96434.56;1026974;28;20034;-69
2021/04/23 00:42:46;;;;;;;11.80;5.67;;;;;;;1.00;90.84;96447.09;1027770;28;20079;-69
2021/04/23 00:43:20;;;;;;;13.77;6.03;;;;;;;0.96;90.76;96445.88;1026830;28;20481;-70
2021/04/23 00:43:57;;;;;;;9.15;5.15;;;;;;;0.93;90.82;96446.25;1021948;28;20118;-69
2021/04/23 00:44:27;;;;;;;11.75;5.85;;;;;;;0.89;91.67;96448.41;1031029;28;20428;-69
2021/04/23 00:44:58;;;;;;;10.50;5.70;;;;;;;0.87;91.59;96450.38;1028694;28;20034;-70
2021/04/23 00:45:29;;;;;;;16.23;6.20;;;;;;;0.89;91.79;96447.59;1021339;28;20047;-70
2021/04/23 00:45:59;;;;;;;14.63;5.53;;;;;;;0.88;91.92;96448.59;1022923;29;20023;-69
2021/04/23 00:46:32;;;;;;;11.87;5.20;;;;;;;0.87;92.04;96444.38;1019544;28;20059;-70
2021/04/23 00:47:02;;;;;;;10.50;5.28;;;;;;;0.86;92.18;96446.19;1022790;28;20035;-70
2021/04/23 00:47:33;;;;;;;10.90;5.30;;;;;;;0.88;92.25;96451.19;1026691;28;20035;-70
2021/04/23 00:48:05;;;;;;;9.33;5.53;;;;;;;0.89;92.08;96445.81;1027308;28;20779;-69
2021/04/23 00:48:39;;;;;;;11.48;5.43;;;;;;;0.87;91.93;96444.38;1030744;28;20018;-69
2021/04/23 00:49:10;;;;;;;10.75;4.97;;;;;;;0.85;91.42;96443.78;1027826;28;20366;-69
2021/04/23 00:49:41;;;;;;;13.37;5.47;;;;;;;0.85;91.11;96451.53;1026922;28;20026;-70
2021/04/23 00:50:12;;;;;;;17.73;6.70;;;;;;;0.84;92.42;96449.91;1026619;28;20026;-69
2021/04/23 00:50:47;;;;;;;15.23;6.03;;;;;;;0.82;92.73;96457.06;1024063;28;20027;-69
2021/04/23 00:51:20;;;;;;;14.27;6.00;;;;;;;0.80;92.84;96448.69;1027844;28;20029;-69
2021/04/23 00:51:59;;;;;;;15.35;6.70;;;;;;;0.80;92.92;96451.28;1030627;28;20026;-69
2021/04/23 00:52:29;;;;;;;13.23;6.28;;;;;;;0.78;92.59;96454.06;1034766;28;20735;-69
2021/04/23 00:53:00;;;;;;;13.27;5.80;;;;;;;0.75;92.71;96445.88;1037060;28;20025;-70
2021/04/23 00:53:32;;;;;;;16.97;5.47;;;;;;;0.77;92.27;96451.66;1034935;28;20032;-70
2021/04/23 00:54:02;;;;;;;12.02;5.70;;;;;;;0.75;92.19;96458.78;1031905;28;20056;-70
2021/04/23 00:54:33;;;;;;;16.60;5.47;;;;;;;0.75;92.33;96456.22;1023054;29;20049;-70
2021/04/23 00:55:05;;;;;;;13.63;5.63;;;;;;;0.76;92.72;96448.25;1018726;29;20328;-69
2021/04/23 00:55:36;;;;;;;14.50;5.88;;;;;;;0.75;92.60;96448.47;1026190;28;20031;-70
2021/04/23 00:56:08;;;;;;;13.57;5.00;;;;;;;0.74;92.39;96449.41;1024080;28;20118;-70
2021/04/23 00:56:39;;;;;;;10.10;5.82;;;;;;;0.72;91.84;96438.50;1027228;28;20035;-69
2021/04/23 00:57:10;;;;;;;13.45;5.38;;;;;;;0.75;91.67;96451.84;1024696;28;20011;-70
2021/04/23 00:57:40;;;;;;;12.87;5.60;;;;;;;0.76;91.62;96457.81;1026907;28;20018;-70
2021/04/23 00:58:19;;;;;;;11.70;5.10;;;;;;;0.74;91.69;96454.59;1027223;28;20019;-69
2021/04/23 00:58:50;;;;;;;11.25;5.95;;;;;;;0.74;92.02;96454.59;1027952;28;20061;-69
2021/04/23 00:59:20;;;;;;;12.20;5.67;;;;;;;0.71;92.17;96448.03;1033839;28;20021;-70
2021/04/23 00:59:51;;;;;;;9.43;5.00;;;;;;;0.73;92.12;96453.00;1027283;28;20014;-69
2021/04/23 01:00:22;;;;;;;15.83;5.43;;;;;;;0.73;91.78;96450.41;1022850;28;20023;-69
2021/04/23 01:00:59;;;;;;;10.82;5.25;;;;;;;0.68;92.33;96456.94;1026591;28;20022;-71
2021/04/23 01:01:35;;;;;;;16.35;5.60;;;;;;;0.79;91.66;96455.66;1025180;28;20094;-69
2021/04/23 01:02:09;;;;;;;15.45;5.97;;;;;;;0.70;91.40;96439.47;1032192;28;20022;-70
2021/04/23 01:02:39;;;;;;;10.20;4.90;;;;;;;0.80;90.55;96453.84;1034956;28;20022;-70
2021/04/23 01:03:11;;;;;;;12.67;5.73;;;;;;;0.79;90.33;96455.66;1035429;28;20518;-69
2021/04/23 01:03:41;;;;;;;16.75;6.07;;;;;;;0.74;90.67;96454.59;1030835;28;20385;-69
2021/04/23 01:04:13;;;;;;;15.53;6.17;;;;;;;0.81;90.57;96456.28;1030346;28;20058;-69
2021/04/23 01:04:43;;;;;;;13.52;4.68;;;;;;;0.75;90.64;96451.03;1026643;28;20015;-69
2021/04/23 01:05:15;;;;;;;10.07;5.50;;;;;;;0.79;91.22;96457.44;1026167;28;20043;-69
2021/04/23 01:05:45;;;;;;;12.30;5.03;;;;;;;0.82;91.05;96451.91;1028058;28;20054;-69
2021/04/23 01:06:21;;;;;;;10.83;5.17;;;;;;;0.78;91.16;96454.06;1030603;28;20026;-69
2021/04/23 01:06:52;;;;;;;13.35;5.20;;;;;;;0.77;91.43;96454.22;1023908;28;20020;-70
2021/04/23 01:07:22;;;;;;;14.17;5.17;;;;;;;0.74;90.60;96449.41;1027672;28;20552;-69
2021/04/23 01:07:52;;;;;;;12.63;6.03;;;;;;;0.74;90.31;96457.16;1026733;28;20018;-70
2021/04/23 01:08:26;;;;;;;10.57;5.80;;;;;;;0.63;90.80;96442.97;1027676;28;20015;-71
2021/04/23 01:08:58;;;;;;;14.48;5.40;;;;;;;0.70;91.08;96457.56;1022630;28;20102;-69
2021/04/23 01:09:29;;;;;;;12.63;5.25;;;;;;;0.72;90.96;96456.56;1015463;29;20084;-71
2021/04/23 01:10:00;;;;;;;17.15;5.40;;;;;;;0.65;91.11;96449.53;1022338;28;20083;-69
2021/04/23 01:10:30;;;;;;;12.60;5.70;;;;;;;0.74;91.11;96460.56;1023291;28;20027;-69
2021/04/23 01:11:02;;;;;;;13.23;5.50;;;;;;;0.70;91.24;96456.75;1022701;28;20453;-69
2021/04/23 01:11:32;;;;;;;10.73;4.75;;;;;;;0.70;91.29;96449.81;1022715;28;20097;-69
2021/04/23 01:12:05;;;;;;;14.57;5.13;;;;;;;0.61;90.61;96445.75;1023330;28;20019;-69
2021/04/23 01:12:35;;;;;;;18.42;6.32;;;;;;;0.67;90.94;96455.34;1024255;28;20007;-69
2021/04/23 01:13:06;;;;;;;13.93;5.60;;;;;;;0.61;91.12;96444.94;1026662;28;20019;-69
2021/04/23 01:13:36;;;;;;;15.33;6.07;;;;;;;0.63;91.29;96456.66;1023020;28;20011;-69
2021/04/23 01:14:07;;;;;;;16.03;5.13;;;;;;;0.66;90.83;96458.88;1019061;29;20506;-70
2021/04/23 01:14:37;;;;;;;15.03;4.53;;;;;;;0.66;90.58;96455.50;1022480;29;20011;-70
2021/04/23 01:15:09;;;;;;;14.67;5.87;;;;;;;0.63;91.24;96454.09;1026432;28;20075;-69
2021/04/23 01:15:39;;;;;;;11.98;5.40;;;;;;;0.65;91.42;96459.09;1026991;28;20022;-69
2021/04/23 01:16:12;;;;;;;16.50;5.70;;;;;;;0.55;91.66;96435.34;1026557;28;20019;-69
2021/04/23 01:16:42;;;;;;;13.63;5.30;;;;;;;0.66;91.35;96458.88;1015179;29;20012;-70
2021/04/23 01:17:13;;;;;;;11.87;5.17;;;;;;;0.66;91.37;96453.72;1018685;29;20020;-69
2021/04/23 01:17:43;;;;;;;10.77;4.90;;;;;;;0.65;91.20;96456.50;1019620;28;20012;-71
2021/04/23 01:18:13;;;;;;;16.20;5.17;;;;;;;0.65;91.03;96457.28;1026793;28;20019;-70
2021/04/23 01:18:44;;;;;;;19.87;5.57;;;;;;;0.59;90.99;96444.31;1030907;28;20006;-70
2021/04/23 01:19:17;;;;;;;13.30;5.50;;;;;;;0.67;90.37;96452.75;1031021;28;20102;-70
2021/04/23 01:19:47;;;;;;;12.00;4.78;;;;;;;0.68;90.19;96456.13;1026775;28;20425;-71
2021/04/23 01:20:18;;;;;;;8.73;4.83;;;;;;;0.66;89.67;96443.38;1026820;28;20026;-70
2021/04/23 01:20:48;;;;;;;13.57;5.07;;;;;;;0.69;89.23;96443.03;1027886;28;20015;-69
2021/04/23 01:21:23;;;;;;;15.40;5.07;;;;;;;0.72;90.43;96451.41;1023662;28;20027;-70
2021/04/23 01:21:54;;;;;;;14.05;5.60;;;;;;;0.70;89.93;96452.41;1022362;28;20532;-69
2021/04/23 01:22:24;;;;;;;8.97;4.67;;;;;;;0.70;89.28;96449.00;1026758;28;20019;-69
2021/04/23 01:22:55;;;;;;;11.83;5.63;;;;;;;0.73;88.93;96445.25;1024049;28;20030;-69
2021/04/23 01:23:25;;;;;;;10.50;4.53;;;;;;;0.72;88.82;96444.44;1026964;28;20082;-70
2021/04/23 01:23:58;;;;;;;11.77;4.97;;;;;;;0.60;88.80;96433.00;1030872;28;20014;-70
2021/04/23 01:24:28;;;;;;;12.18;4.82;;;;;;;0.69;89.11;96444.81;1022971;28;20028;-69
2021/04/23 01:24:59;;;;;;;10.67;4.77;;;;;;;0.69;89.41;96453.34;1030807;28;20361;-69
2021/04/23 01:25:30;;;;;;;13.00;4.83;;;;;;;0.67;89.77;96450.19;1021927;29;20527;-70
2021/04/23 01:26:01;;;;;;;12.60;5.35;;;;;;;0.58;89.85;96443.50;1019945;28;20028;-70
2021/04/23 01:26:34;;;;;;;11.93;5.43;;;;;;;0.63;89.58;96451.50;1025962;28;20058;-69
2021/04/23 01:27:04;;;;;;;14.18;5.05;;;;;;;0.47;90.26;96428.50;1023834;28;20448;-69
2021/04/23 01:27:35;;;;;;;13.27;6.27;;;;;;;0.60;90.43;96454.44;1027430;28;20037;-69
2021/04/23 01:28:06;;;;;;;11.70;5.10;;;;;;;0.62;90.13;96452.50;1023223;28;20023;-70
2021/04/23 01:28:36;;;;;;;12.73;5.03;;;;;;;0.63;89.74;96454.09;1030967;28;20027;-69
2021/04/23 01:29:08;;;;;;;10.83;5.83;;;;;;;0.60;90.00;96451.06;1023048;28;20071;-70
2021/04/23 01:29:38;;;;;;;12.65;4.65;;;;;;;0.56;90.24;96455.00;1025755;28;20037;-70
2021/04/23 01:30:14;;;;;;;12.17;5.00;;;;;;;0.56;90.08;96453.22;1031574;28;20022;-69
2021/04/23 01:30:44;;;;;;;12.90;5.10;;;;;;;0.54;89.97;96450.03;1027782;28;20094;-69
2021/04/23 01:31:15;;;;;;;15.27;4.80;;;;;;;0.53;90.44;96452.78;1030980;28;20033;-71
2021/04/23 01:31:47;;;;;;;10.68;5.00;;;;;;;0.54;89.56;96450.03;1034697;28;20075;-69
2021/04/23 01:32:18;;;;;;;12.40;4.65;;;;;;;0.53;88.83;96453.56;1027104;28;20027;-69
2021/04/23 01:32:49;;;;;;;11.43;4.50;;;;;;;0.52;88.21;96449.41;1026963;28;20491;-69
2021/04/23 01:33:19;;;;;;;11.10;4.65;;;;;;;0.50;87.92;96461.69;1022385;28;20027;-70
2021/04/23 01:33:51;;;;;;;10.17;4.77;;;;;;;0.44;87.62;96440.00;1026543;28;20027;-70
2021/04/23 01:34:33;;;;;;;14.88;5.20;;;;;;;0.49;87.19;96462.66;1027523;28;20034;-69
2021/04/23 01:35:06;;;;;;;9.02;4.18;;;;;;;0.48;87.45;96463.66;1035662;28;20112;-69
2021/04/23 01:35:36;;;;;;;15.43;5.05;;;;;;;0.48;87.33;96466.25;1028458;28;20022;-69
2021/04/23 01:36:07;;;;;;;12.70;4.87;;;;;;;0.50;87.92;96472.00;1028725;28;21124;-69
2021/04/23 01:36:38;;;;;;;11.13;5.20;;;;;;;0.50;87.90;96464.25;1030562;28;21069;-70
2021/04/23 01:37:09;;;;;;;10.27;4.37;;;;;;;0.52;88.12;96471.84;1023352;28;20302;-69
2021/04/23 01:37:39;;;;;;;11.80;4.60;;;;;;;0.51;87.82;96470.25;1026853;28;20030;-70
2021/04/23 01:38:10;;;;;;;10.30;4.70;;;;;;;0.37;87.69;96451.19;1022645;29;20149;-69
2021/04/23 01:38:41;;;;;;;13.23;5.30;;;;;;;0.51;89.05;96471.03;1027093;28;20027;-70
2021/04/23 01:39:14;;;;;;;12.43;4.45;;;;;;;0.49;89.38;96473.00;1030920;28;20047;-69
2021/04/23 01:39:44;;;;;;;13.63;4.90;;;;;;;0.45;88.96;96471.75;1034911;28;20487;-69
2021/04/23 01:40:15;;;;;;;11.43;4.60;;;;;;;0.47;89.49;96475.78;1021996;29;20074;-69
2021/04/23 01:40:46;;;;;;;17.50;4.97;;;;;;;0.45;89.83;96471.75;1019692;28;20090;-70
2021/04/23 01:41:18;;;;;;;12.47;5.20;;;;;;;0.44;89.68;96475.34;1027049;28;20023;-70
2021/04/23 01:41:50;;;;;;;13.60;4.78;;;;;;;0.44;90.24;96480.50;1027333;28;20037;-69
2021/04/23 01:42:20;;;;;;;10.30;5.05;;;;;;;0.44;89.95;96470.16;1030753;28;20030;-70
2021/04/23 01:42:50;;;;;;;9.50;4.43;;;;;;;0.44;89.56;96470.16;1022657;29;20425;-70
2021/04/23 01:43:21;;;;;;;10.80;5.33;;;;;;;0.41;89.65;96462.78;1018272;29;20026;-70
2021/04/23 01:43:51;;;;;;;11.17;5.00;;;;;;;0.43;89.75;96469.34;1018285;28;20043;-70
2021/04/23 01:44:22;;;;;;;10.43;4.47;;;;;;;0.46;89.63;96468.19;1021015;28;20047;-70
2021/04/23 01:44:57;;;;;;;11.07;5.03;;;;;;;0.46;89.62;96463.03;1026198;28;20019;-70
2021/04/23 01:45:27;;;;;;;9.77;4.75;;;;;;;0.42;89.92;96467.75;1021291;28;20454;-70
2021/04/23 01:45:58;;;;;;;8.30;4.27;;;;;;;0.42;90.83;96466.97;1023363;28;20034;-69
2021/04/23 01:46:28;;;;;;;12.50;4.70;;;;;;;0.41;90.71;96466.16;1026739;28;20396;-69
2021/04/23 01:46:59;;;;;;;8.37;5.13;;;;;;;0.37;91.23;96467.50;1022576;28;20560;-70
2021/04/23 01:47:29;;;;;;;11.17;5.03;;;;;;;0.37;91.22;96471.84;1030464;28;20030;-70
2021/04/23 01:48:00;;;;;;;10.93;4.63;;;;;;;0.35;91.34;96464.28;1031265;28;20048;-69
2021/04/23 01:48:31;;;;;;;12.17;4.70;;;;;;;0.36;91.31;96468.47;1030074;28;20117;-69
2021/04/23 01:49:12;;;;;;;12.13;4.73;;;;;;;0.39;91.42;96469.91;1030726;28;20023;-71
2021/04/23 01:49:43;;;;;;;12.10;5.10;;;;;;;0.37;91.65;96464.94;1030681;28;20122;-70
2021/04/23 01:50:17;;;;;;;19.83;6.10;;;;;;;0.35;92.03;96466.09;1031899;28;21483;-70
2021/04/23 01:50:47;;;;;;;13.63;4.38;;;;;;;0.31;91.85;96459.69;1036633;28;20080;-72
2021/04/23 01:51:17;;;;;;;12.50;5.10;;;;;;;0.35;92.18;96463.50;1030579;28;20046;-69
2021/04/23 01:51:53;;;;;;;13.07;6.07;;;;;;;0.30;92.40;96463.22;1030648;28;20026;-70
2021/04/23 01:52:24;;;;;;;12.38;5.00;;;;;;;0.28;92.50;96467.78;1026495;28;20027;-70
2021/04/23 01:52:54;;;;;;;12.17;4.67;;;;;;;0.26;93.05;96462.78;1020047;28;20028;-70
2021/04/23 01:53:25;;;;;;;13.27;5.20;;;;;;;0.25;93.83;96462.97;1025624;28;20624;-70
2021/04/23 01:53:55;;;;;;;8.80;4.37;;;;;;;0.26;93.60;96462.00;1019230;28;20124;-69
2021/04/23 01:54:26;;;;;;;9.73;4.60;;;;;;;0.23;93.09;96450.25;1018864;28;20103;-70
2021/04/23 01:54:57;;;;;;;14.30;5.20;;;;;;;0.29;92.58;96461.63;1030841;28;20109;-70
2021/04/23 01:55:27;;;;;;;7.17;4.37;;;;;;;0.28;92.71;96470.38;1025279;28;20510;-72
2021/04/23 01:55:58;;;;;;;10.43;4.30;;;;;;;0.24;92.61;96469.94;1026307;28;20497;-69
2021/04/23 01:56:29;;;;;;;10.53;4.63;;;;;;;0.23;92.42;96457.97;1030444;28;20078;-70
2021/04/23 01:56:59;;;;;;;17.70;4.85;;;;;;;0.18;92.21;96455.94;1022459;28;20023;-70
2021/04/23 01:57:30;;;;;;;13.70;4.53;;;;;;;0.30;92.28;96465.81;1034782;28;20846;-69
2021/04/23 01:58:00;;;;;;;10.27;5.07;;;;;;;0.28;92.22;96460.84;1030544;28;20431;-69
2021/04/23 01:58:31;;;;;;;13.43;4.50;;;;;;;0.19;92.51;96457.53;1031242;28;20038;-70
2021/04/23 01:59:03;;;;;;;13.13;5.53;;;;;;;0.27;93.40;96458.41;1030519;28;20029;-69
2021/04/23 01:59:34;;;;;;;9.25;4.93;;;;;;;0.27;93.66;96472.16;1022502;29;20058;-69
2021/04/23 02:00:12;;;;;;;12.32;5.25;;;;;;;0.23;94.06;96463.97;1022896;28;20023;-69
2021/04/23 02:00:44;;;;;;;19.33;5.25;;;;;;;0.22;93.92;96467.50;1026359;28;20038;-69
2021/04/23 02:01:15;;;;;;;12.20;5.15;;;;;;;0.21;94.08;96471.06;1022306;29;20031;-70
2021/04/23 02:01:45;;;;;;;12.95;4.70;;;;;;;0.20;94.74;96466.06;1021338;29;20030;-69
2021/04/23 02:02:17;;;;;;;14.67;5.03;;;;;;;0.18;94.66;96466.28;1021893;28;20420;-69
2021/04/23 02:02:50;;;;;;;12.27;4.63;;;;;;;0.10;94.73;96453.47;1018959;28;20527;-69
2021/04/23 02:03:21;;;;;;;11.57;5.55;;;;;;;0.20;94.77;96466.06;1018495;29;20058;-69
2021/04/23 02:03:51;;;;;;;10.17;5.10;;;;;;;0.16;95.09;96463.06;1018984;29;20087;-69
2021/04/23 02:04:22;;;;;;;9.37;4.93;;;;;;;0.15;95.25;96458.09;1023882;28;20031;-69
2021/04/23 02:04:52;;;;;;;9.50;5.13;;;;;;;0.13;95.61;96463.41;1026552;28;20102;-70
2021/04/23 02:05:23;;;;;;;10.33;4.27;;;;;;;0.18;95.39;96455.94;1025318;28;20035;-70
2021/04/23 02:05:54;;;;;;;8.87;4.43;;;;;;;0.16;95.59;96462.25;1026578;28;20023;-69
2021/04/23 02:06:24;;;;;;;14.80;5.60;;;;;;;0.12;96.06;96461.81;1026707;28;20031;-69
2021/04/23 02:06:55;;;;;;;9.77;4.30;;;;;;;0.17;95.99;96466.47;1023029;28;20468;-69
2021/04/23 02:07:26;;;;;;;10.83;4.77;;;;;;;0.16;95.94;96467.41;1028140;28;20026;-69
2021/04/23 02:07:56;;;;;;;13.57;5.50;;;;;;;0.15;96.10;96469.19;1030841;28;20025;-69
2021/04/23 02:08:27;;;;;;;8.50;4.77;;;;;;;0.14;96.50;96462.44;1033705;28;20552;-70
2021/04/23 02:08:57;;;;;;;12.00;5.47;;;;;;;0.08;96.16;96444.31;1035852;28;20022;-69
2021/04/23 02:09:28;;;;;;;9.47;4.83;;;;;;;0.16;95.97;96463.06;1033273;28;20069;-69
2021/04/23 02:09:58;;;;;;;11.93;4.90;;;;;;;0.16;95.69;96455.31;1027897;28;20014;-69
2021/04/23 02:10:31;;;;;;;13.30;6.20;;;;;;;0.16;96.20;96457.91;1030718;28;20034;-69
2021/04/23 02:11:10;;;;;;;10.88;4.70;;;;;;;0.14;95.99;96457.28;1031573;28;20022;-70
2021/04/23 02:11:42;;;;;;;12.05;4.35;;;;;;;0.11;96.04;96449.91;1027724;28;20026;-69
2021/04/23 02:12:12;;;;;;;10.60;4.60;;;;;;;0.15;96.28;96455.50;1030588;28;20498;-69
2021/04/23 02:12:43;;;;;;;10.53;4.97;;;;;;;0.19;95.62;96464.50;1026928;28;20026;-70
2021/04/23 02:13:14;;;;;;;10.80;5.20;;;;;;;0.18;95.30;96455.94;1018470;29;20027;-70
2021/04/23 02:13:45;;;;;;;15.67;5.37;;;;;;;0.18;95.62;96450.78;1019626;29;20019;-69
2021/04/23 02:14:16;;;;;;;9.10;4.50;;;;;;;0.19;95.63;96462.69;1019756;28;20019;-69
2021/04/23 02:14:46;;;;;;;12.33;5.40;;;;;;;0.22;95.30;96456.38;1027094;28;20051;-70
2021/04/23 02:15:17;;;;;;;11.37;5.03;;;;;;;0.22;95.29;96454.59;1030689;28;20694;-70
2021/04/23 02:15:47;;;;;;;8.03;4.53;;;;;;;0.22;94.82;96452.03;1030862;28;20022;-71
2021/04/23 02:16:18;;;;;;;12.13;4.87;;;;;;;0.18;94.90;96450.00;1035738;28;20030;-70
2021/04/23 02:16:49;;;;;;;11.85;4.70;;;;;;;0.26;94.73;96452.47;1035543;28;20022;-71
2021/04/23 02:17:20;;;;;;;11.77;4.93;;;;;;;0.27;94.45;96453.25;1031066;28;20027;-70
2021/04/23 02:17:50;;;;;;;12.43;5.05;;;;;;;0.19;94.53;96442.06;1035171;28;20026;-69
2021/04/23 02:18:22;;;;;;;8.30;4.63;;;;;;;0.28;94.69;96454.88;1031300;28;20057;-69
2021/04/23 02:18:53;;;;;;;14.80;5.63;;;;;;;0.31;94.72;96449.34;1031101;28;20022;-69
2021/04/23 02:19:23;;;;;;;10.63;4.93;;;;;;;0.33;94.75;96458.50;1031594;28;20023;-70
2021/04/23 02:19:54;;;;;;;10.63;5.37;;;;;;;0.31;94.65;96451.94;1035648;28;20025;-70
2021/04/23 02:20:29;;;;;;;14.98;5.68;;;;;;;0.30;95.01;96460.66;1031745;28;20081;-69
2021/04/23 02:21:00;;;;;;;15.02;5.32;;;;;;;0.27;95.33;96455.84;1031308;28;20026;-70
2021/04/23 02:21:30;;;;;;;11.87;5.70;;;;;;;0.26;95.75;96459.41;1035547;28;20026;-70
2021/04/23 02:22:01;;;;;;;9.07;4.73;;;;;;;0.23;96.46;96453.66;1031830;28;20041;-70
2021/04/23 02:22:31;;;;;;;13.53;5.67;;;;;;;0.22;96.87;96456.38;1027514;28;20091;-70
2021/04/23 02:23:05;;;;;;;14.87;5.80;;;;;;;0.20;97.17;96453.19;1030793;28;20041;-70
2021/04/23 02:23:36;;;;;;;14.95;5.40;;;;;;;0.16;97.68;96457.91;1027613;28;20026;-70
2021/04/23 02:24:06;;;;;;;12.57;5.30;;;;;;;0.15;97.47;96458.09;1023609;28;20035;-70
2021/04/23 02:24:37;;;;;;;17.83;5.80;;;;;;;0.12;98.01;96456.66;1023454;28;20023;-69
2021/04/23 02:25:08;;;;;;;14.93;5.63;;;;;;;0.10;98.54;96453.47;1026773;28;20857;-71
2021/04/23 02:25:38;;;;;;;11.07;6.10;;;;;;;0.08;98.50;96455.41;1023357;28;20038;-69
2021/04/23 02:26:09;;;;;;;16.17;6.27;;;;;;;0.00;98.63;96442.63;1024432;28;20090;-69
2021/04/23 02:26:39;;;;;;;10.90;5.33;;;;;;;0.07;99.14;96458.16;1031260;28;20048;-70
2021/04/23 02:27:10;;;;;;;13.70;5.73;;;;;;;0.05;99.29;96453.19;1027319;28;20046;-70
2021/04/23 02:27:41;;;;;;;16.15;6.18;;;;;;;0.04;99.75;96456.75;1027816;28;20037;-70
2021/04/23 02:28:11;;;;;;;13.30;5.67;;;;;;;0.01;99.80;96444.22;1030848;28;20030;-70
2021/04/23 02:28:43;;;;;;;16.33;6.07;;;;;;;0.01;100.00;96451.97;1031788;28;20022;-70
2021/04/23 02:29:14;;;;;;;13.85;6.55;;;;;;;0.01;100.00;96453.75;1031324;28;20041;-70
2021/04/23 02:29:44;;;;;;;10.88;5.82;;;;;;;-0.11;100.00;96436.13;1027126;28;20039;-70